Goshen, Kentucky
Current Conditions -  °F | °C
As of 12:53 AM on Wednesday 26 Nov 2014 (Local Time) from KLOU Reporting Station
Clear Clear  
Wind Chill: 32°   Ceiling: Unl
Heat Index: 32°   Visibility: 10mi
Dew Point: 26°   Wind: 3mph
Humidity: 79%   Direction: 10°N
Pressure: 30.18"   Gusts: NA
Location:  38.4°N, 85.57°W
Report Text: KLOU 260553Z AUTO 01003KT 10SM CLR 00/M03 A3018 RMK AO2 SLP222 T00001033 10050 20000 58005
Loading
Personal Weather Stations






























Interactive Weather Map New forecast layout! Learn more

10-Day Weather Forecast

Advertisements
Track Severe Weather on mobile